Berlin, Michigan
Current Conditions -  °F | °C
As of 9:34 PM on Wednesday 17 Dec 2014 (Local Time) from KD95 Reporting Station
Overcast Overcast  
Wind Chill: -8°   Ceiling: 2600
Heat Index: -3°   Visibility: 10mi
Dew Point: -7°   Wind: 12mph
Humidity: 74%   Direction: 280°W
Pressure: 30.1"   Gusts: 17mph
Location:  42.9384°N, 82.9255°W
Report Text: KD95 180234Z AUTO 28010G15KT 10SM BKN026 OVC036 M03/M07 A3010 RMK AO2 T10271067
Loading
Personal Weather Stations






























Interactive Weather Map New forecast layout! Learn more

10-Day Weather Forecast

Advertisements
Track Severe Weather on mobile